Time;durP1;ratioP1;P1;durP2;ratioP2;P2;SDS_P1;SDS_P2;PMS_P1;PMS_P2;Temp;Humidity;BMP_temperature;BMP_pressure;BME280_temperature;BME280_humidity;BME280_pressure;Samples;Min_cycle;Max_cycle;Signal;HPM_P1;HPM_P2
2023/06/19 00:01:56;;;;;;;10.65;8.10;;;20.00;99.90;;;;;;4969325;28;20046;-57
2023/06/19 00:04:22;;;;;;;9.88;8.13;;;20.20;99.90;;;;;;4973011;28;20075;-56
2023/06/19 00:06:48;;;;;;;12.43;8.70;;;19.80;99.90;;;;;;4954873;28;20055;-57
2023/06/19 00:09:14;;;;;;;12.07;8.60;;;19.90;96.90;;;;;;4972315;28;20093;-55
2023/06/19 00:11:40;;;;;;;12.40;8.63;;;20.20;99.90;;;;;;4954382;28;20046;-57
2023/06/19 00:14:05;;;;;;;10.52;8.80;;;20.10;99.90;;;;;;4967400;28;20045;-57
2023/06/19 00:16:32;;;;;;;10.57;8.45;;;20.10;99.90;;;;;;4973024;28;20038;-57
2023/06/19 00:18:57;;;;;;;10.82;7.45;;;20.10;99.90;;;;;;4971049;28;20523;-56
2023/06/19 00:21:27;;;;;;;10.77;7.95;;;20.10;99.90;;;;;;4970243;28;20043;-57
2023/06/19 00:23:53;;;;;;;9.55;8.15;;;20.30;99.90;;;;;;4971416;28;20532;-57
2023/06/19 00:26:22;;;;;;;9.07;7.20;;;19.90;99.90;;;;;;4973129;28;20563;-57
2023/06/19 00:28:48;;;;;;;11.15;7.35;;;20.10;99.90;;;;;;4937098;28;20046;-55
2023/06/19 00:31:14;;;;;;;11.15;7.82;;;20.00;99.90;;;;;;4965919;28;20070;-56
2023/06/19 00:33:40;;;;;;;9.50;7.20;;;20.00;99.90;;;;;;4970992;28;20045;-57
2023/06/19 00:36:15;;;;;;;10.23;7.63;;;20.20;99.90;;;;;;4971888;28;20043;-57
2023/06/19 00:38:42;;;;;;;8.60;7.18;;;20.20;99.90;;;;;;4972739;28;20035;-56
2023/06/19 00:41:08;;;;;;;10.10;7.90;;;19.90;99.90;;;;;;4971402;28;20043;-56
2023/06/19 00:43:34;;;;;;;8.88;7.22;;;21.70;99.90;;;;;;4952190;28;20085;-56
2023/06/19 00:46:01;;;;;;;9.55;7.53;;;20.00;99.90;;;;;;4965638;28;20066;-56
2023/06/19 00:48:28;;;;;;;10.38;6.80;;;19.90;99.90;;;;;;4971133;28;20515;-57
2023/06/19 00:50:55;;;;;;;11.10;7.65;;;20.40;1.00;;;;;;4968625;28;20035;-57
2023/06/19 00:53:22;;;;;;;12.52;7.60;;;20.00;60.80;;;;;;4972064;28;20551;-56
2023/06/19 00:55:48;;;;;;;12.15;8.07;;;20.10;1.00;;;;;;4971626;28;20041;-56
2023/06/19 00:58:15;;;;;;;11.20;8.20;;;19.80;1.00;;;;;;4972397;28;20038;-56
2023/06/19 01:00:41;;;;;;;8.70;6.97;;;20.20;1.00;;;;;;4971509;28;20039;-56
2023/06/19 01:03:06;;;;;;;13.65;8.07;;;20.10;1.00;;;;;;4951312;28;20567;-56
2023/06/19 01:05:33;;;;;;;9.13;7.30;;;20.30;1.00;;;;;;4972559;28;20444;-55
2023/06/19 01:08:35;;;;;;;10.05;7.32;;;20.10;1.00;;;;;;4967229;28;20404;-56
2023/06/19 01:11:03;;;;;;;9.55;7.18;;;20.10;73.10;;;;;;4954676;28;20074;-56
2023/06/19 01:13:50;;;;;;;10.15;8.35;;;20.20;1.00;;;;;;4953548;28;20508;-59
2023/06/19 01:16:17;;;;;;;9.73;7.88;;;19.90;1.00;;;;;;4971476;28;20074;-57
2023/06/19 01:18:44;;;;;;;9.30;7.38;;;21.10;1.00;;;;;;4969299;28;20073;-57
2023/06/19 01:21:18;;;;;;;9.88;7.25;;;21.00;1.00;;;;;;4953874;28;20047;-57
2023/06/19 01:23:44;;;;;;;9.88;7.45;;;20.10;1.00;;;;;;4963984;28;20457;-57
2023/06/19 01:26:11;;;;;;;9.77;7.43;;;20.10;1.00;;;;;;4954350;28;20038;-57
2023/06/19 01:28:39;;;;;;;9.70;7.55;;;20.70;4.00;;;;;;4969443;28;20047;-57
2023/06/19 01:31:20;;;;;;;10.32;7.40;;;20.10;4.60;;;;;;4968784;28;20121;-57
2023/06/19 01:33:47;;;;;;;10.23;7.40;;;20.00;1.00;;;;;;4970600;28;20477;-57
2023/06/19 01:36:14;;;;;;;9.25;7.57;;;20.30;1.00;;;;;;4953514;28;20038;-57
2023/06/19 01:38:43;;;;;;;9.70;7.85;;;20.50;99.90;;;;;;4972247;28;20038;-57
2023/06/19 01:41:10;;;;;;;10.80;7.82;;;20.00;1.00;;;;;;4970605;28;20055;-57
2023/06/19 01:43:36;;;;;;;12.23;7.72;;;20.00;1.00;;;;;;4971648;28;20050;-57
2023/06/19 01:46:02;;;;;;;10.23;6.85;;;20.10;1.00;;;;;;4952978;28;20118;-58
2023/06/19 01:48:28;;;;;;;9.63;7.25;;;19.90;1.00;;;;;;4971745;28;20110;-57
2023/06/19 01:50:53;;;;;;;10.30;7.30;;;19.80;99.90;;;;;;4970545;28;20551;-57
2023/06/19 01:53:19;;;;;;;9.85;7.03;;;20.70;99.90;;;;;;4971104;28;20093;-57
2023/06/19 01:55:45;;;;;;;11.57;7.72;;;20.00;99.90;;;;;;4937003;28;20404;-56
2023/06/19 01:58:11;;;;;;;10.55;7.82;;;20.00;99.90;;;;;;4964128;28;20519;-57
2023/06/19 02:00:37;;;;;;;9.60;7.10;;;19.60;99.90;;;;;;4971101;28;20046;-56
2023/06/19 02:03:04;;;;;;;9.27;7.15;;;20.20;99.90;;;;;;4951497;28;20093;-57
2023/06/19 02:05:30;;;;;;;10.25;7.13;;;20.60;99.90;;;;;;4970959;28;20057;-56
2023/06/19 02:07:56;;;;;;;10.52;7.32;;;20.20;99.90;;;;;;4967628;28;20035;-57
2023/06/19 02:10:22;;;;;;;9.68;7.20;;;20.00;99.90;;;;;;4971567;28;20038;-57
2023/06/19 02:12:47;;;;;;;9.73;7.30;;;20.10;99.90;;;;;;4970125;28;20051;-57
2023/06/19 02:15:13;;;;;;;8.57;6.60;;;19.90;99.90;;;;;;4970809;28;21566;-57
2023/06/19 02:17:38;;;;;;;10.23;7.35;;;20.00;99.90;;;;;;4953180;28;20035;-57
2023/06/19 02:20:08;;;;;;;9.88;7.10;;;20.10;99.90;;;;;;4966019;28;20505;-57
2023/06/19 02:22:34;;;;;;;10.60;7.88;;;20.10;99.90;;;;;;4953962;28;20672;-55
2023/06/19 02:25:00;;;;;;;10.30;7.20;;;20.30;99.90;;;;;;4963772;28;20111;-57
2023/06/19 02:27:25;;;;;;;9.93;7.28;;;19.80;99.90;;;;;;4951046;28;20386;-57
2023/06/19 02:29:51;;;;;;;9.77;7.45;;;20.10;99.90;;;;;;4970059;28;20047;-57
2023/06/19 02:32:17;;;;;;;9.52;7.38;;;19.90;99.90;;;;;;4932563;28;20050;-56
2023/06/19 02:34:42;;;;;;;10.27;8.13;;;19.90;90.50;;;;;;4968767;28;20169;-56
2023/06/19 02:37:08;;;;;;;9.98;7.43;;;20.10;99.90;;;;;;4953633;28;20037;-57
2023/06/19 02:39:33;;;;;;;10.52;7.32;;;20.30;99.90;;;;;;4970714;28;20763;-56
2023/06/19 02:41:59;;;;;;;9.68;7.28;;;20.10;99.90;;;;;;4969698;28;20122;-57
2023/06/19 02:44:25;;;;;;;10.95;7.60;;;20.20;98.20;;;;;;4953393;28;20042;-57
2023/06/19 02:46:51;;;;;;;11.50;7.32;;;20.50;1.00;;;;;;4970048;28;20106;-54
2023/06/19 02:49:16;;;;;;;10.60;7.60;;;20.80;1.00;;;;;;4968760;28;20031;-57
2023/06/19 02:51:42;;;;;;;12.32;8.55;;;19.80;1.00;;;;;;4934427;28;20039;-57
2023/06/19 02:54:08;;;;;;;9.75;8.07;;;19.70;99.90;;;;;;4953029;28;20038;-56
2023/06/19 02:56:33;;;;;;;11.40;7.57;;;20.60;99.90;;;;;;4970596;28;20035;-57
2023/06/19 02:58:59;;;;;;;10.50;7.60;;;19.80;99.90;;;;;;4969905;28;20504;-56
2023/06/19 03:01:25;;;;;;;9.85;7.60;;;19.80;99.90;;;;;;4970561;28;20035;-55
2023/06/19 03:03:52;;;;;;;11.27;8.07;;;20.10;1.00;;;;;;4946728;28;20050;-53
2023/06/19 03:06:18;;;;;;;10.13;8.00;;;20.60;1.00;;;;;;4952924;28;20050;-55
2023/06/19 03:08:44;;;;;;;10.40;7.85;;;20.20;1.00;;;;;;4965699;28;20041;-56
2023/06/19 03:11:11;;;;;;;10.50;8.32;;;20.20;1.00;;;;;;4969777;28;20043;-56
2023/06/19 03:13:47;;;;;;;9.60;7.43;;;20.10;1.00;;;;;;4970991;28;20046;-56
2023/06/19 03:16:14;;;;;;;12.02;8.13;;;20.70;1.00;;;;;;4969354;28;20043;-54
2023/06/19 03:18:41;;;;;;;12.55;8.65;;;20.10;99.90;;;;;;4938374;28;20114;-56
2023/06/19 03:21:07;;;;;;;10.75;7.88;;;19.90;1.00;;;;;;4956812;28;20050;-57
2023/06/19 03:23:32;;;;;;;12.63;8.73;;;19.90;1.00;;;;;;4973746;28;20043;-55
2023/06/19 03:25:58;;;;;;;12.02;8.73;;;20.00;1.00;;;;;;4970238;28;20042;-56
2023/06/19 03:28:23;;;;;;;11.90;9.27;;;20.20;1.00;;;;;;4974150;28;20034;-56
2023/06/19 03:30:50;;;;;;;11.98;9.05;;;20.10;1.00;;;;;;4968689;28;20074;-55
2023/06/19 03:33:16;;;;;;;10.93;8.27;;;19.70;1.00;;;;;;4972975;28;20038;-57
2023/06/19 03:35:42;;;;;;;11.57;8.85;;;20.00;1.00;;;;;;4967751;28;20097;-56
2023/06/19 03:38:08;;;;;;;11.48;9.40;;;19.70;2.30;;;;;;4957322;28;20074;-56
2023/06/19 03:40:37;;;;;;;14.15;8.93;;;19.80;1.00;;;;;;4974437;28;20074;-56
2023/06/19 03:43:02;;;;;;;11.18;9.27;;;20.00;1.00;;;;;;4972497;28;20184;-56
2023/06/19 03:45:28;;;;;;;10.60;8.55;;;19.50;1.00;;;;;;4973955;28;20027;-57
2023/06/19 03:47:53;;;;;;;10.20;7.80;;;19.50;1.00;;;;;;4970854;28;20030;-54
2023/06/19 03:50:19;;;;;;;11.52;7.05;;;19.60;1.00;;;;;;4969653;28;20039;-56
2023/06/19 03:52:45;;;;;;;9.90;6.50;;;19.40;1.00;;;;;;4955931;28;20041;-56
2023/06/19 03:55:10;;;;;;;10.35;6.68;;;20.20;1.00;;;;;;4971634;28;20118;-54
2023/06/19 03:57:36;;;;;;;8.25;5.75;;;20.30;1.00;;;;;;4973464;28;20039;-55
2023/06/19 04:00:07;;;;;;;8.82;5.65;;;19.90;1.00;;;;;;4973767;28;20097;-56
2023/06/19 04:02:36;;;;;;;9.00;4.65;;;19.80;5.00;;;;;;4971350;28;20073;-54
2023/06/19 04:05:01;;;;;;;7.65;4.38;;;20.00;1.00;;;;;;4973079;28;20078;-55
2023/06/19 04:07:27;;;;;;;6.25;3.65;;;19.70;42.60;;;;;;4971822;28;20405;-56
2023/06/19 04:09:52;;;;;;;6.18;3.47;;;19.70;95.70;;;;;;4956011;28;20057;-55
2023/06/19 04:12:18;;;;;;;6.40;3.70;;;19.80;99.90;;;;;;4972393;28;20169;-57
2023/06/19 04:14:44;;;;;;;6.90;3.60;;;20.00;99.90;;;;;;4950806;28;20102;-55
2023/06/19 04:17:09;;;;;;;5.78;3.25;;;20.00;99.90;;;;;;4953653;28;20051;-55
2023/06/19 04:19:35;;;;;;;7.90;3.47;;;20.10;99.90;;;;;;4973377;28;20030;-55
2023/06/19 04:22:01;;;;;;;5.97;3.30;;;20.20;99.90;;;;;;4955221;28;20125;-56
2023/06/19 04:24:26;;;;;;;8.68;3.28;;;20.00;99.90;;;;;;4953618;28;20117;-57
2023/06/19 04:26:52;;;;;;;8.32;3.65;;;20.20;99.90;;;;;;4971706;28;20046;-55
2023/06/19 04:29:18;;;;;;;6.38;2.92;;;20.10;99.90;;;;;;4937217;28;20042;-56
2023/06/19 04:31:46;;;;;;;7.13;3.55;;;20.40;99.90;;;;;;4973020;28;20085;-54
2023/06/19 04:34:14;;;;;;;6.05;3.53;;;20.00;99.90;;;;;;4971183;28;20457;-56
2023/06/19 04:36:40;;;;;;;6.32;3.83;;;20.00;99.90;;;;;;4953494;28;20125;-56
2023/06/19 04:39:06;;;;;;;7.22;3.63;;;19.90;99.90;;;;;;4971811;28;20039;-56
2023/06/19 04:41:32;;;;;;;6.18;3.70;;;20.10;99.90;;;;;;4971857;28;20412;-55
2023/06/19 04:43:57;;;;;;;6.22;3.65;;;20.00;99.90;;;;;;4972029;28;20031;-56
2023/06/19 04:46:23;;;;;;;7.65;4.15;;;21.50;99.90;;;;;;4964265;28;20064;-56
2023/06/19 04:48:50;;;;;;;10.27;4.38;;;20.00;99.90;;;;;;4969247;28;20045;-56
2023/06/19 04:51:20;;;;;;;7.00;3.63;;;20.60;99.90;;;;;;4949210;28;20130;-55
2023/06/19 04:53:47;;;;;;;7.78;4.30;;;21.00;99.90;;;;;;4960318;28;20387;-56
2023/06/19 04:56:13;;;;;;;8.18;4.22;;;21.00;99.90;;;;;;4964156;28;20043;-55
2023/06/19 04:58:45;;;;;;;7.78;4.20;;;20.30;99.90;;;;;;4960325;28;20031;-56
2023/06/19 05:01:12;;;;;;;8.38;4.07;;;20.00;99.90;;;;;;4965519;28;20050;-56
2023/06/19 05:03:38;;;;;;;7.65;4.15;;;20.70;99.90;;;;;;4964397;28;20035;-56
2023/06/19 05:06:03;;;;;;;6.65;3.88;;;20.20;99.90;;;;;;4963684;28;20421;-57
2023/06/19 05:08:29;;;;;;;7.18;4.18;;;20.80;99.90;;;;;;4947586;28;20039;-55
2023/06/19 05:10:56;;;;;;;7.85;3.70;;;20.20;99.90;;;;;;4954923;28;20042;-56
2023/06/19 05:13:21;;;;;;;6.97;4.28;;;20.60;99.90;;;;;;4948689;28;20042;-55
2023/06/19 05:15:48;;;;;;;7.20;4.88;;;20.40;99.90;;;;;;4954741;28;20085;-57
2023/06/19 05:18:14;;;;;;;7.43;4.60;;;20.30;99.90;;;;;;4969965;28;20047;-57
2023/06/19 05:20:39;;;;;;;8.93;4.93;;;20.20;99.90;;;;;;4969294;28;20030;-56
2023/06/19 05:23:05;;;;;;;8.02;5.57;;;20.10;99.90;;;;;;4967260;28;20043;-56
2023/06/19 05:25:31;;;;;;;9.52;6.93;;;20.00;99.90;;;;;;4951093;28;20126;-57
2023/06/19 05:27:56;;;;;;;12.20;7.80;;;20.20;99.90;;;;;;4946905;28;20037;-57
2023/06/19 05:30:22;;;;;;;12.40;8.90;;;20.40;99.90;;;;;;4964038;28;20194;-56
2023/06/19 05:32:48;;;;;;;13.93;10.75;;;20.10;99.90;;;;;;4954293;28;20105;-57
2023/06/19 05:35:13;;;;;;;20.50;13.52;;;20.30;99.90;;;;;;4971106;28;20140;-57
2023/06/19 05:37:39;;;;;;;20.15;14.40;;;20.30;99.90;;;;;;4971776;28;20609;-55
2023/06/19 05:40:06;;;;;;;18.73;15.43;;;20.40;99.90;;;;;;4972052;28;20057;-56
2023/06/19 05:42:32;;;;;;;20.33;16.33;;;20.00;1.00;;;;;;4965796;28;20027;-57
2023/06/19 05:44:57;;;;;;;22.55;17.40;;;20.40;99.90;;;;;;4971289;28;20038;-57
2023/06/19 05:47:25;;;;;;;22.23;18.45;;;20.50;99.90;;;;;;4971242;28;20039;-57
2023/06/19 05:49:51;;;;;;;27.13;20.27;;;20.60;1.00;;;;;;4938397;28;20039;-56
2023/06/19 05:52:17;;;;;;;29.85;24.50;;;21.40;1.00;;;;;;4971169;28;20037;-57
2023/06/19 05:54:42;;;;;;;29.05;25.60;;;20.50;1.00;;;;;;4971343;28;20192;-57
2023/06/19 05:57:08;;;;;;;30.08;25.90;;;20.70;99.90;;;;;;4971472;28;20039;-57
2023/06/19 05:59:33;;;;;;;31.05;26.25;;;20.70;1.00;;;;;;4971731;28;20273;-57
2023/06/19 06:01:59;;;;;;;31.40;28.05;;;20.40;99.90;;;;;;4971071;28;20450;-56
2023/06/19 06:04:25;;;;;;;29.00;25.98;;;21.10;1.00;;;;;;4971195;28;20038;-56
2023/06/19 06:06:51;;;;;;;24.88;21.92;;;20.50;99.90;;;;;;4971743;28;20038;-55
2023/06/19 06:09:16;;;;;;;24.25;21.20;;;20.70;99.90;;;;;;4951874;28;20070;-56
2023/06/19 06:11:42;;;;;;;29.67;21.67;;;20.50;99.90;;;;;;4954484;28;20036;-57
2023/06/19 06:14:08;;;;;;;26.85;22.98;;;21.30;94.10;;;;;;4970332;28;20039;-56
2023/06/19 06:16:33;;;;;;;28.95;23.90;;;20.60;99.90;;;;;;4953858;28;20042;-57
2023/06/19 06:18:59;;;;;;;25.95;21.95;;;21.00;99.90;;;;;;4971108;28;20419;-57
2023/06/19 06:21:25;;;;;;;30.50;24.33;;;21.00;99.90;;;;;;4970774;28;20419;-57
2023/06/19 06:23:50;;;;;;;25.92;22.17;;;20.40;99.90;;;;;;4953846;28;20051;-57
2023/06/19 06:26:16;;;;;;;28.17;23.70;;;21.10;99.90;;;;;;4970611;28;20045;-56
2023/06/19 06:28:42;;;;;;;33.72;22.75;;;21.40;99.90;;;;;;4971530;28;20035;-57
2023/06/19 06:31:07;;;;;;;31.10;24.55;;;21.10;99.90;;;;;;4970983;28;20123;-56
2023/06/19 06:33:33;;;;;;;30.00;23.67;;;20.40;94.40;;;;;;4970704;28;20050;-57
2023/06/19 06:35:59;;;;;;;31.92;24.52;;;20.80;75.50;;;;;;4953673;28;20038;-57
2023/06/19 06:38:25;;;;;;;34.60;27.65;;;20.70;90.40;;;;;;4970667;28;20051;-56
2023/06/19 06:40:51;;;;;;;30.40;25.40;;;20.50;83.00;;;;;;4970984;28;20126;-54
2023/06/19 06:43:17;;;;;;;32.53;25.55;;;20.50;99.90;;;;;;4968516;28;20042;-57
2023/06/19 06:45:43;;;;;;;30.33;23.90;;;20.50;99.90;;;;;;4952816;28;20098;-56
2023/06/19 06:48:08;;;;;;;30.02;24.42;;;21.10;99.90;;;;;;4953543;28;20046;-56
2023/06/19 06:50:34;;;;;;;34.40;26.20;;;20.40;90.10;;;;;;4953619;28;20053;-56
2023/06/19 06:53:00;;;;;;;30.83;22.38;;;20.30;99.90;;;;;;4937748;28;20115;-57
2023/06/19 06:55:26;;;;;;;35.08;26.83;;;20.40;96.90;;;;;;4969922;28;20043;-55
2023/06/19 06:57:51;;;;;;;34.95;21.92;;;20.50;99.90;;;;;;4970941;28;20195;-57
2023/06/19 07:00:18;;;;;;;30.45;20.67;;;20.30;99.90;;;;;;4970164;28;20121;-56
2023/06/19 07:02:43;;;;;;;31.55;22.15;;;20.10;99.90;;;;;;4953153;28;20043;-56
2023/06/19 07:05:10;;;;;;;33.58;22.80;;;19.70;99.90;;;;;;4970651;28;20568;-56
2023/06/19 07:07:36;;;;;;;33.40;22.50;;;19.80;99.90;;;;;;4945519;28;20039;-57
2023/06/19 07:10:02;;;;;;;35.72;21.13;;;19.90;99.90;;;;;;4953517;28;20050;-57
2023/06/19 07:12:28;;;;;;;33.17;22.42;;;19.10;99.90;;;;;;4969964;28;20042;-56
2023/06/19 07:14:54;;;;;;;31.63;21.52;;;19.70;1.00;;;;;;4970131;28;20596;-57
2023/06/19 07:17:20;;;;;;;35.58;22.10;;;19.60;1.00;;;;;;4970516;28;20097;-56
2023/06/19 07:19:46;;;;;;;33.00;22.52;;;20.00;1.00;;;;;;4970607;28;20106;-57
2023/06/19 07:22:13;;;;;;;31.95;21.40;;;19.90;1.00;;;;;;4970258;28;20572;-56
2023/06/19 07:24:40;;;;;;;33.55;21.55;;;19.80;1.00;;;;;;4952711;28;20042;-56
2023/06/19 07:27:06;;;;;;;30.50;18.17;;;19.10;1.00;;;;;;4970427;28;20050;-56
2023/06/19 07:29:32;;;;;;;30.52;20.17;;;19.90;1.00;;;;;;4952578;28;20505;-55
2023/06/19 07:31:58;;;;;;;33.10;20.10;;;19.10;1.00;;;;;;4937326;28;20504;-57
2023/06/19 07:34:24;;;;;;;37.88;21.55;;;19.60;1.00;;;;;;4969821;28;20146;-56
2023/06/19 07:36:50;;;;;;;35.25;22.15;;;18.90;1.00;;;;;;4970551;28;20047;-57
2023/06/19 07:39:16;;;;;;;33.67;19.17;;;19.60;1.00;;;;;;4970149;28;20035;-57
2023/06/19 07:41:41;;;;;;;34.20;20.75;;;19.40;1.00;;;;;;4970339;28;20400;-56
2023/06/19 07:44:07;;;;;;;36.60;23.08;;;19.10;7.80;;;;;;4969901;28;20038;-56
2023/06/19 07:46:32;;;;;;;29.15;16.88;;;18.30;84.20;;;;;;4970295;28;20409;-57
2023/06/19 07:48:58;;;;;;;30.20;19.52;;;18.30;99.90;;;;;;4970393;28;20101;-57
2023/06/19 07:51:24;;;;;;;30.90;19.50;;;18.50;99.90;;;;;;4952661;28;20607;-56
2023/06/19 07:53:50;;;;;;;34.80;22.48;;;;;;;;;;4969587;28;20097;-57
2023/06/19 07:56:18;;;;;;;28.23;19.52;;;19.00;99.90;;;;;;4965975;28;20050;-57
2023/06/19 07:58:44;;;;;;;31.10;18.70;;;19.20;99.90;;;;;;4971461;28;20047;-57
2023/06/19 08:01:10;;;;;;;27.70;19.23;;;18.30;99.90;;;;;;4956200;28;20323;-56
2023/06/19 08:03:36;;;;;;;27.10;18.95;;;18.40;99.90;;;;;;4939804;28;20117;-56
2023/06/19 08:06:01;;;;;;;23.20;17.23;;;18.50;99.90;;;;;;4956717;28;20049;-57
2023/06/19 08:08:27;;;;;;;25.38;16.40;;;19.00;99.90;;;;;;4973541;28;20038;-56
2023/06/19 08:10:53;;;;;;;25.50;16.45;;;18.20;99.90;;;;;;4973588;28;20043;-57
2023/06/19 08:13:18;;;;;;;26.83;17.48;;;18.40;99.90;;;;;;4973098;28;20089;-57
2023/06/19 08:15:45;;;;;;;21.60;15.63;;;18.60;99.90;;;;;;4973032;28;20461;-57
2023/06/19 08:18:10;;;;;;;24.50;15.95;;;18.30;99.90;;;;;;4973880;28;20039;-57
2023/06/19 08:20:36;;;;;;;23.75;16.58;;;19.00;99.90;;;;;;4956085;28;20042;-57
2023/06/19 08:23:02;;;;;;;21.65;17.20;;;18.60;99.90;;;;;;4973425;28;20137;-57
2023/06/19 08:25:28;;;;;;;23.25;16.55;;;18.00;99.90;;;;;;4972897;28;20394;-55
2023/06/19 08:27:54;;;;;;;24.92;16.90;;;18.20;99.90;;;;;;4955942;28;20039;-57
2023/06/19 08:30:19;;;;;;;24.50;17.10;;;17.90;99.90;;;;;;4972914;28;20042;-57
2023/06/19 08:32:48;;;;;;;24.90;16.80;;;19.00;99.90;;;;;;4973025;28;20051;-57
2023/06/19 08:35:15;;;;;;;24.20;16.60;;;18.20;99.90;;;;;;4973181;28;20094;-57
2023/06/19 08:37:41;;;;;;;26.00;17.17;;;18.60;99.90;;;;;;4973435;28;20560;-57
2023/06/19 08:40:09;;;;;;;23.13;16.98;;;17.90;99.90;;;;;;4972953;28;20043;-57
2023/06/19 08:42:35;;;;;;;23.15;16.65;;;18.00;99.90;;;;;;4972749;28;20413;-57
2023/06/19 08:45:01;;;;;;;23.42;16.17;;;18.40;99.90;;;;;;4972667;28;20105;-56
2023/06/19 08:47:31;;;;;;;22.02;15.10;;;19.40;99.90;;;;;;4972760;28;20497;-57
2023/06/19 08:49:59;;;;;;;25.85;16.58;;;18.70;97.00;;;;;;4973007;28;20449;-56
2023/06/19 08:52:25;;;;;;;23.83;16.80;;;19.40;92.10;;;;;;4955231;28;20047;-57
2023/06/19 08:54:50;;;;;;;24.45;15.57;;;19.00;59.50;;;;;;4972677;28;20350;-57
2023/06/19 08:57:16;;;;;;;19.60;14.35;;;18.70;38.40;;;;;;4972614;28;20118;-57
2023/06/19 08:59:50;;;;;;;19.02;13.63;;;18.60;1.00;;;;;;4964870;28;20045;-57
2023/06/19 09:02:15;;;;;;;22.33;14.40;;;18.60;1.00;;;;;;4955495;28;20085;-56
2023/06/19 09:04:41;;;;;;;24.55;15.00;;;19.50;1.00;;;;;;4947014;28;20066;-57
2023/06/19 09:07:08;;;;;;;18.67;13.13;;;19.30;1.00;;;;;;4972882;28;20042;-57
2023/06/19 09:09:33;;;;;;;17.48;12.98;;;19.50;1.00;;;;;;4971707;28;20101;-55
2023/06/19 09:12:00;;;;;;;18.50;13.55;;;19.50;1.00;;;;;;4955292;28;20046;-57
2023/06/19 09:14:39;;;;;;;21.50;12.80;;;20.10;99.90;;;;;;4971837;28;20058;-56
2023/06/19 09:17:11;;;;;;;17.73;13.38;;;19.50;99.90;;;;;;4972383;28;20428;-56
2023/06/19 09:19:37;;;;;;;20.30;13.68;;;20.00;99.90;;;;;;4972558;28;20061;-57
2023/06/19 09:22:07;;;;;;;19.73;14.27;;;19.80;99.90;;;;;;4972430;28;20047;-57
2023/06/19 09:24:38;;;;;;;19.27;13.05;;;19.30;99.90;;;;;;4954438;28;20039;-57
2023/06/19 09:27:09;;;;;;;20.80;14.73;;;19.50;99.90;;;;;;4955238;28;20121;-57
2023/06/19 09:29:38;;;;;;;19.23;15.38;;;19.60;99.90;;;;;;4972013;28;20531;-57
2023/06/19 09:32:25;;;;;;;23.83;13.93;;;19.90;99.90;;;;;;4972324;28;20090;-56
2023/06/19 09:34:54;;;;;;;19.92;12.32;;;19.60;99.90;;;;;;4964655;28;20073;-57
2023/06/19 09:37:27;;;;;;;17.48;12.02;;;19.60;99.90;;;;;;4954668;28;20043;-57
2023/06/19 09:39:58;;;;;;;17.17;13.07;;;19.30;99.90;;;;;;4947876;28;20051;-55
2023/06/19 09:42:28;;;;;;;16.80;13.32;;;19.20;99.90;;;;;;4963195;28;20039;-54
2023/06/19 09:45:01;;;;;;;21.45;13.07;;;19.40;99.90;;;;;;4953698;28;20066;-56
2023/06/19 09:47:31;;;;;;;18.75;12.23;;;19.70;99.90;;;;;;4971980;28;20125;-56
2023/06/19 09:49:57;;;;;;;18.83;12.52;;;19.80;96.10;;;;;;4971956;28;20687;-57
2023/06/19 09:52:24;;;;;;;19.20;12.77;;;19.50;65.80;;;;;;4971301;28;20119;-57
2023/06/19 09:54:51;;;;;;;18.00;13.43;;;19.10;1.50;;;;;;4971536;28;20405;-56
2023/06/19 09:57:18;;;;;;;20.27;14.18;;;19.60;37.80;;;;;;4971843;28;20045;-57
2023/06/19 09:59:54;;;;;;;24.02;14.63;;;17.00;21.00;;;;;;4954365;28;20038;-57
2023/06/19 10:02:21;;;;;;;19.90;13.93;;;20.10;1.00;;;;;;4938400;28;20073;-57
2023/06/19 10:04:51;;;;;;;17.55;12.80;;;19.80;2.30;;;;;;4963789;28;20034;-57
2023/06/19 10:07:20;;;;;;;18.30;12.45;;;19.70;1.00;;;;;;4971757;28;20046;-56
2023/06/19 10:10:10;;;;;;;21.33;14.73;;;19.90;1.00;;;;;;4971556;28;20062;-57
2023/06/19 10:12:43;;;;;;;22.85;14.55;;;19.60;1.00;;;;;;4971355;28;20042;-56
2023/06/19 10:15:10;;;;;;;17.75;12.82;;;19.90;1.00;;;;;;4954266;28;20401;-56
2023/06/19 10:17:35;;;;;;;19.48;13.05;;;19.80;1.00;;;;;;4953571;28;20413;-57
2023/06/19 10:20:01;;;;;;;19.65;15.43;;;20.20;99.90;;;;;;4971564;28;20030;-56
2023/06/19 10:22:30;;;;;;;23.30;15.55;;;20.70;99.90;;;;;;4970514;28;20042;-55
2023/06/19 10:24:56;;;;;;;18.08;15.10;;;19.90;99.90;;;;;;4971317;28;20105;-54
2023/06/19 10:27:23;;;;;;;20.58;15.00;;;20.50;99.90;;;;;;4971053;28;20038;-54
2023/06/19 10:29:57;;;;;;;18.23;13.00;;;21.00;99.90;;;;;;4971299;28;20038;-55
2023/06/19 10:32:23;;;;;;;18.13;12.70;;;20.40;99.90;;;;;;4970784;28;20047;-55
2023/06/19 10:34:49;;;;;;;15.38;11.60;;;20.50;99.90;;;;;;4970838;28;20037;-55
2023/06/19 10:37:17;;;;;;;18.77;12.32;;;20.80;31.20;;;;;;4971128;28;20057;-54
2023/06/19 10:39:43;;;;;;;21.90;13.43;;;20.60;2.70;;;;;;4970884;28;20038;-55
2023/06/19 10:42:10;;;;;;;20.35;15.88;;;21.20;31.20;;;;;;4953789;28;20039;-57
2023/06/19 10:44:37;;;;;;;22.67;15.68;;;21.10;61.10;;;;;;4970497;28;20038;-55
2023/06/19 10:47:04;;;;;;;22.08;15.18;;;20.80;42.50;;;;;;4971354;28;20110;-55
2023/06/19 10:49:30;;;;;;;21.02;15.55;;;20.70;30.10;;;;;;4970522;28;20042;-57
2023/06/19 10:51:59;;;;;;;22.50;14.90;;;20.70;19.60;;;;;;4953902;28;20171;-53
2023/06/19 10:54:25;;;;;;;22.27;15.55;;;20.80;45.40;;;;;;4970247;28;20166;-57
2023/06/19 10:56:51;;;;;;;24.33;16.98;;;20.50;1.00;;;;;;4970958;28;20520;-57
2023/06/19 10:59:18;;;;;;;25.10;18.23;;;20.60;16.50;;;;;;4971012;28;20031;-56
2023/06/19 11:01:46;;;;;;;23.70;16.98;;;20.50;87.30;;;;;;4953121;28;20047;-57
2023/06/19 11:04:14;;;;;;;21.05;16.52;;;20.80;20.20;;;;;;4966058;28;20051;-57
2023/06/19 11:06:41;;;;;;;23.38;16.40;;;21.20;24.90;;;;;;4970913;28;20316;-56
2023/06/19 11:09:08;;;;;;;22.13;16.45;;;20.50;1.00;;;;;;4970949;28;20046;-55
2023/06/19 11:11:41;;;;;;;20.92;15.73;;;21.20;1.00;;;;;;4970978;28;20392;-53
2023/06/19 11:14:07;;;;;;;19.65;14.02;;;20.70;1.00;;;;;;4953141;28;20061;-57
2023/06/19 11:16:34;;;;;;;20.13;15.68;;;20.50;1.00;;;;;;4970399;28;20214;-57
2023/06/19 11:19:00;;;;;;;19.38;15.20;;;20.20;1.00;;;;;;4970627;28;20035;-56
2023/06/19 11:21:36;;;;;;;19.45;12.70;;;20.80;1.00;;;;;;4970877;28;20425;-57
2023/06/19 11:24:02;;;;;;;19.83;13.45;;;20.50;99.90;;;;;;4953316;28;20047;-57
2023/06/19 11:26:28;;;;;;;17.98;13.48;;;20.50;99.90;;;;;;4970337;28;20045;-57
2023/06/19 11:28:54;;;;;;;20.65;15.60;;;21.10;99.90;;;;;;4970782;28;20034;-57
2023/06/19 11:31:29;;;;;;;19.23;13.57;;;20.40;99.90;;;;;;4970522;28;20561;-56
2023/06/19 11:34:03;;;;;;;17.42;13.80;;;20.90;99.90;;;;;;4972555;28;20225;-55
2023/06/19 11:36:29;;;;;;;16.63;12.60;;;20.60;99.90;;;;;;4956422;28;20053;-57
2023/06/19 11:38:55;;;;;;;15.68;12.30;;;20.80;99.90;;;;;;4974509;28;20307;-57
2023/06/19 11:41:28;;;;;;;15.65;10.65;;;21.00;99.90;;;;;;4974131;28;20035;-56
2023/06/19 11:44:03;;;;;;;16.45;11.57;;;21.90;99.90;;;;;;4966696;28;20038;-55
2023/06/19 11:46:30;;;;;;;18.73;11.35;;;20.80;99.90;;;;;;4956755;28;20034;-57
2023/06/19 11:49:09;;;;;;;14.90;10.75;;;21.80;99.90;;;;;;4974505;28;20031;-56
2023/06/19 11:51:35;;;;;;;14.77;10.60;;;21.30;99.90;;;;;;4974196;28;20423;-56
2023/06/19 11:54:01;;;;;;;15.25;10.02;;;22.10;99.90;;;;;;4956725;28;20043;-57
2023/06/19 11:56:27;;;;;;;13.65;10.10;;;21.50;99.90;;;;;;4974355;28;20117;-56
2023/06/19 11:58:53;;;;;;;13.15;9.65;;;22.40;99.90;;;;;;4974145;28;20477;-55
2023/06/19 12:01:18;;;;;;;13.20;10.10;;;22.20;99.90;;;;;;4956910;28;20042;-57
2023/06/19 12:03:44;;;;;;;14.55;10.50;;;22.10;99.90;;;;;;4973298;28;20445;-57
2023/06/19 12:06:10;;;;;;;13.68;9.15;;;22.10;99.90;;;;;;4973822;28;20066;-58
2023/06/19 12:08:37;;;;;;;13.52;8.68;;;22.00;99.90;;;;;;4973211;28;20045;-57
2023/06/19 12:11:03;;;;;;;10.88;8.30;;;21.80;4.20;;;;;;4974163;28;20122;-57
2023/06/19 12:13:28;;;;;;;11.27;8.57;;;21.70;5.30;;;;;;4973608;28;20046;-57
2023/06/19 12:15:54;;;;;;;12.30;9.45;;;22.10;1.00;;;;;;4966292;28;20053;-58
2023/06/19 12:18:20;;;;;;;11.90;9.10;;;21.80;1.00;;;;;;4973611;28;20047;-58
2023/06/19 12:20:45;;;;;;;11.88;8.52;;;22.00;77.00;;;;;;4972985;28;20073;-57
2023/06/19 12:23:11;;;;;;;12.13;8.40;;;21.80;1.00;;;;;;4973145;28;20412;-57
2023/06/19 12:25:36;;;;;;;14.90;10.45;;;22.40;1.00;;;;;;4973052;28;20531;-57
2023/06/19 12:28:08;;;;;;;13.80;8.68;;;22.30;1.00;;;;;;4973544;28;20054;-57
2023/06/19 12:30:34;;;;;;;12.23;8.60;;;22.60;1.00;;;;;;4955816;28;20145;-58
2023/06/19 12:33:00;;;;;;;13.35;8.57;;;22.80;1.00;;;;;;4973088;28;20035;-56
2023/06/19 12:35:26;;;;;;;12.00;9.85;;;22.90;1.00;;;;;;4972963;28;20046;-56
2023/06/19 12:37:52;;;;;;;12.02;8.55;;;23.30;1.00;;;;;;4972790;28;20408;-55